Time;durP1;ratioP1;P1;durP2;ratioP2;P2;SDS_P1;SDS_P2;PMS_P1;PMS_P2;Temp;Humidity;BMP_temperature;BMP_pressure;BME280_temperature;BME280_humidity;BME280_pressure;Samples;Min_cycle;Max_cycle;Signal;HPM_P1;HPM_P2
2022/07/13 15:20:02;;;;;;;8.18;7.47;;;51.50;21.40;;;41.71;14.43;95965.53;4846387;28;25195;-48
2022/07/13 15:22:31;;;;;;;5.63;5.32;;;50.80;18.70;;;41.51;14.85;95963.91;4940599;28;21184;-46
2022/07/13 15:25:00;;;;;;;6.53;6.10;;;50.50;17.60;;;41.42;13.25;95966.63;5024128;28;20025;-52
2022/07/13 15:27:28;;;;;;;6.43;5.90;;;50.60;16.50;;;41.16;15.20;95966.03;4992335;28;20029;-47
2022/07/13 15:30:00;;;;;;;5.38;4.93;;;50.70;15.90;;;40.92;13.19;95966.47;5001335;28;20082;-47
2022/07/13 15:32:26;;;;;;;5.47;5.07;;;50.80;15.10;;;40.60;13.03;95964.88;5006312;28;20021;-47
2022/07/13 15:34:57;;;;;;;7.72;6.32;;;50.80;14.60;;;40.90;14.41;95957.03;5007489;28;20025;-49
2022/07/13 15:37:23;;;;;;;6.68;6.15;;;51.10;14.40;;;40.85;14.95;95965.97;4999473;28;20021;-46
2022/07/13 15:39:49;;;;;;;6.07;5.70;;;51.30;14.30;;;40.60;14.35;95964.09;5007144;28;20033;-48
2022/07/13 15:42:17;;;;;;;7.78;5.50;;;51.50;14.20;;;40.50;13.55;95966.00;5022236;28;20021;-47
2022/07/13 15:47:15;;;;;;;5.25;4.95;;;51.50;13.30;;;39.98;13.26;95954.16;4992665;28;20076;-51
2022/07/13 15:49:44;;;;;;;5.13;4.70;;;51.10;13.20;;;40.22;13.56;95953.81;4989311;28;20037;-54
2022/07/13 15:52:10;;;;;;;6.60;6.03;;;50.80;13.20;;;40.59;14.16;95962.50;4970618;28;20714;-54
2022/07/13 15:54:35;;;;;;;7.40;6.88;;;51.50;13.20;;;40.31;13.64;95962.28;4987109;28;20030;-56
2022/07/13 15:57:16;;;;;;;8.13;7.53;;;52.40;12.80;;;40.90;13.17;95959.81;4951730;28;20551;-52
2022/07/13 15:59:45;;;;;;;11.25;10.55;;;53.20;12.60;;;41.23;12.95;95945.44;4968637;28;20069;-51
2022/07/13 16:02:12;;;;;;;13.17;12.37;;;54.50;12.10;;;41.99;12.90;95953.19;4973818;28;20116;-56
2022/07/13 16:04:38;;;;;;;12.45;11.43;;;55.80;11.90;;;42.27;11.76;95953.25;4975678;28;20030;-52
2022/07/13 16:07:04;;;;;;;15.60;14.45;;;56.90;11.40;;;42.43;11.40;95941.78;4980165;28;20992;-55
2022/07/13 16:09:30;;;;;;;15.13;14.18;;;57.50;11.00;;;41.98;12.02;95943.25;4977164;28;20065;-54
2022/07/13 16:11:55;;;;;;;14.45;13.32;;;57.90;10.70;;;42.02;12.48;95949.47;4961885;28;20551;-49
2022/07/13 16:14:21;;;;;;;16.00;15.10;;;58.20;10.60;;;42.54;11.72;95940.53;4959376;28;20041;-55
2022/07/13 16:16:49;;;;;;;17.90;16.55;;;58.50;10.50;;;42.93;11.48;95939.56;4970292;28;20493;-52
2022/07/13 16:19:19;;;;;;;20.88;19.58;;;58.90;10.30;;;42.98;11.59;95932.56;4971766;28;20042;-52
2022/07/13 16:21:49;;;;;;;14.90;13.95;;;59.10;10.20;;;42.49;11.56;95936.34;4976873;28;20030;-52
2022/07/13 16:24:17;;;;;;;9.57;9.02;;;58.80;10.00;;;42.09;12.09;95930.84;4954545;28;20033;-52
2022/07/13 16:26:43;;;;;;;7.03;6.47;;;57.40;10.20;;;41.72;12.75;95927.97;4961746;28;20026;-51
2022/07/13 16:29:11;;;;;;;8.88;8.10;;;55.90;10.60;;;41.74;11.78;95923.44;4991105;28;20052;-50
2022/07/13 16:31:37;;;;;;;11.57;10.48;;;55.70;10.60;;;42.00;12.01;95924.00;4955772;28;20671;-57
2022/07/13 16:34:03;;;;;;;12.05;11.25;;;56.50;11.00;;;42.03;11.93;95920.28;4980405;28;20576;-51
2022/07/13 16:36:32;;;;;;;11.88;10.82;;;57.30;10.40;;;42.27;11.37;95917.63;4978913;28;20030;-55
2022/07/13 16:39:00;;;;;;;10.23;9.63;;;57.70;10.20;;;42.16;12.51;95913.78;4972161;28;20088;-50
2022/07/13 16:41:26;;;;;;;6.05;5.72;;;57.20;10.30;;;41.89;11.64;95912.47;4978972;28;20030;-51
2022/07/13 16:43:52;;;;;;;3.90;3.53;;;55.50;10.50;;;41.25;12.11;95913.00;4955103;28;20440;-53
2022/07/13 16:46:18;;;;;;;4.78;3.60;;;53.70;10.90;;;40.50;14.17;95915.78;4969080;28;20068;-55
2022/07/13 16:48:47;;;;;;;3.47;3.25;;;51.90;11.50;;;39.91;13.75;95914.59;4948164;28;20480;-48
2022/07/13 16:51:15;;;;;;;6.40;2.40;;;50.10;12.50;;;39.41;16.38;95914.19;4953702;28;20396;-49
2022/07/13 16:53:41;;;;;;;2.45;2.25;;;48.60;13.00;;;38.75;16.87;95913.75;4974143;28;20872;-57
2022/07/13 16:56:09;;;;;;;4.22;1.90;;;47.30;13.80;;;38.06;17.43;95905.66;4959209;28;20133;-48
2022/07/13 16:58:35;;;;;;;1.88;1.77;;;46.10;14.40;;;37.50;18.39;95903.84;4968457;28;20484;-53
2022/07/13 17:01:01;;;;;;;2.63;1.73;;;45.00;15.50;;;37.16;18.11;95903.44;4953085;28;20072;-54
2022/07/13 17:03:27;;;;;;;1.90;1.80;;;44.10;15.40;;;36.58;17.42;95912.19;4970993;28;20034;-50
2022/07/13 17:05:53;;;;;;;3.53;2.30;;;43.20;15.50;;;36.12;19.53;95908.25;4949207;28;20042;-47
2022/07/13 17:08:19;;;;;;;2.25;2.05;;;42.40;16.10;;;35.65;18.91;95920.09;4924949;28;20030;-53
2022/07/13 17:10:45;;;;;;;1.88;1.50;;;41.60;16.40;;;35.20;20.09;95917.59;4962258;28;20019;-51
2022/07/13 17:13:11;;;;;;;2.30;2.03;;;41.00;16.90;;;34.78;21.22;95922.47;4958086;28;20035;-51
2022/07/13 17:15:44;;;;;;;6.32;1.60;;;40.30;17.40;;;34.40;22.03;95918.94;4947988;28;20019;-47
2022/07/13 17:18:57;;;;;;;1.75;1.58;;;39.70;18.10;;;33.93;23.07;95926.91;4947263;28;20137;-53
2022/07/13 17:21:31;;;;;;;7.28;1.90;;;39.10;18.80;;;33.33;24.46;95917.09;4947820;28;20068;-50
2022/07/13 17:23:57;;;;;;;4.53;1.77;;;38.40;19.50;;;32.99;25.00;95920.44;4951425;28;20097;-54
2022/07/13 17:26:26;;;;;;;3.92;1.70;;;37.90;19.90;;;32.70;25.03;95919.78;4967175;28;20026;-54
2022/07/13 17:28:53;;;;;;;2.72;1.83;;;37.40;20.50;;;32.40;26.22;95921.03;4947792;28;20028;-51
2022/07/13 17:31:25;;;;;;;4.53;1.60;;;37.00;20.90;;;32.06;26.65;95923.50;4951261;28;20069;-48
2022/07/13 17:33:55;;;;;;;1.50;1.40;;;36.60;21.50;;;31.70;26.89;95911.69;4966530;28;20038;-50
2022/07/13 17:36:23;;;;;;;3.05;1.58;;;36.20;21.90;;;31.56;27.61;95918.78;4963647;28;20026;-52
2022/07/13 17:38:52;;;;;;;4.45;1.90;;;35.80;22.30;;;31.32;29.74;95925.00;4973150;28;20034;-50
2022/07/13 17:41:25;;;;;;;3.20;1.80;;;35.50;22.90;;;31.18;28.37;95920.25;4971963;28;20080;-51
2022/07/13 17:43:56;;;;;;;;;;;35.30;23.20;;;31.00;28.03;95920.22;4956315;28;20053;-50
2022/07/13 17:46:32;;;;;;;4.50;2.00;;;35.00;22.80;;;30.81;28.75;95924.09;4972064;28;19914;-50
2022/07/13 17:48:57;;;;;;;4.53;2.03;;;34.80;23.20;;;30.65;29.13;95927.16;4938699;28;20022;-48
2022/07/13 17:51:23;;;;;;;2.97;1.70;;;34.60;23.60;;;30.51;29.11;95920.81;4968161;28;20027;-49
2022/07/13 17:53:58;;;;;;;4.30;1.42;;;34.40;23.90;;;30.33;30.02;95924.25;4956948;28;20026;-53
2022/07/13 17:56:24;;;;;;;3.40;1.70;;;34.20;24.30;;;30.18;30.50;95915.13;4937194;28;20026;-51
2022/07/13 17:59:01;;;;;;;5.03;2.00;;;34.00;24.60;;;29.96;31.17;95916.16;4935975;28;20046;-50
2022/07/13 18:01:27;;;;;;;4.82;1.77;;;33.80;25.10;;;29.79;32.01;95914.06;4953565;28;20018;-51
2022/07/13 18:03:56;;;;;;;5.80;2.05;;;33.60;25.40;;;29.64;30.91;95919.44;4971450;28;20052;-49
2022/07/13 18:06:27;;;;;;;5.43;1.90;;;33.40;25.50;;;29.54;30.83;95922.84;4961378;28;20105;-50
2022/07/13 18:08:59;;;;;;;6.95;2.10;;;33.20;25.60;;;29.42;31.70;95923.94;4955371;28;20041;-50
2022/07/13 18:11:31;;;;;;;6.05;1.88;;;33.00;26.00;;;29.27;33.42;95917.53;4971315;28;20056;-49
2022/07/13 18:14:04;;;;;;;3.88;1.70;;;32.80;26.30;;;29.08;32.28;95914.97;4954715;28;20030;-49
2022/07/13 18:16:33;;;;;;;7.32;2.15;;;32.70;26.40;;;28.96;33.48;95924.25;4970826;28;20413;-50
2022/07/13 18:19:02;;;;;;;2.72;1.88;;;32.50;26.70;;;28.81;32.82;95926.03;4949963;28;20026;-51
2022/07/13 18:21:29;;;;;;;2.58;1.90;;;32.40;27.00;;;28.59;33.02;95911.28;4920048;28;20069;-49
2022/07/13 18:24:04;;;;;;;4.05;1.70;;;32.20;27.00;;;28.42;35.63;95922.81;4936858;28;20512;-47
2022/07/13 18:26:35;;;;;;;2.30;1.70;;;32.00;27.60;;;28.25;36.77;95913.19;4951975;28;20540;-48
2022/07/13 18:29:01;;;;;;;5.82;1.88;;;31.90;28.00;;;28.11;36.21;95916.53;4951245;28;20034;-47
2022/07/13 18:31:27;;;;;;;6.28;2.05;;;31.70;28.20;;;28.04;36.29;95921.09;4956882;28;20037;-48
2022/07/13 18:33:58;;;;;;;2.55;1.70;;;31.50;28.50;;;27.90;35.84;95924.41;4935018;28;20026;-48
2022/07/13 18:36:25;;;;;;;3.67;1.87;;;31.40;28.80;;;27.75;35.61;95926.13;4958696;28;20145;-48
2022/07/13 18:38:51;;;;;;;4.43;2.17;;;31.30;28.70;;;27.65;35.52;95929.47;4968497;28;20073;-50
2022/07/13 18:41:25;;;;;;;2.50;2.20;;;31.10;28.80;;;27.53;39.31;95929.66;4970300;28;20033;-49
2022/07/13 18:43:52;;;;;;;2.75;1.98;;;31.00;29.60;;;27.37;39.45;95936.03;4967047;28;20026;-48
2022/07/13 18:46:19;;;;;;;3.30;1.65;;;30.90;30.00;;;27.22;37.85;95926.78;4964264;28;20140;-50
2022/07/13 18:48:51;;;;;;;6.70;2.20;;;30.70;30.00;;;27.05;39.81;95940.13;4929450;29;20394;-52
2022/07/13 18:51:23;;;;;;;4.30;1.70;;;30.60;30.60;;;26.93;41.37;95943.81;4934810;28;20109;-49
2022/07/13 18:53:49;;;;;;;3.38;2.00;;;30.40;31.20;;;26.77;41.49;95941.94;4939302;28;20034;-50
2022/07/13 18:56:18;;;;;;;2.88;2.05;;;30.30;31.40;;;26.68;41.98;95954.25;4954068;28;20031;-50
2022/07/13 18:58:46;;;;;;;2.15;1.50;;;30.10;32.20;;;26.56;42.99;95948.91;4934417;28;20035;-48
2022/07/13 19:01:18;;;;;;;2.55;2.10;;;30.00;32.60;;;26.47;42.40;95947.16;4945391;28;20516;-51
2022/07/13 19:03:44;;;;;;;2.15;1.80;;;29.90;33.20;;;26.37;42.49;95947.72;4963644;28;20473;-52
2022/07/13 19:06:13;;;;;;;5.28;1.90;;;29.70;33.10;;;26.25;42.42;95945.91;4955293;28;20113;-52
2022/07/13 19:08:39;;;;;;;4.47;1.75;;;29.60;33.50;;;26.19;43.00;95946.53;4951708;28;20038;-48
2022/07/13 19:11:09;;;;;;;5.18;1.48;;;29.50;33.80;;;26.11;43.92;95950.28;4950589;28;20058;-49
2022/07/13 19:13:38;;;;;;;3.28;1.83;;;29.40;34.30;;;26.00;44.94;95952.75;4957890;28;20029;-49
2022/07/13 19:16:07;;;;;;;2.47;1.50;;;29.30;34.80;;;25.89;45.24;95955.25;4951100;28;20027;-50
2022/07/13 19:18:33;;;;;;;4.43;1.90;;;29.20;35.10;;;25.79;44.62;95953.00;4943326;28;20032;-48
2022/07/13 19:20:59;;;;;;;3.88;1.73;;;29.10;35.30;;;25.66;44.76;95954.25;4950721;29;20385;-48
2022/07/13 19:23:25;;;;;;;3.40;1.77;;;28.90;35.50;;;25.57;44.67;95948.97;4919363;28;20119;-48
2022/07/13 19:28:39;;;;;;;11.10;1.55;;;28.70;35.60;;;25.45;44.31;95949.06;4955445;28;20060;-47
2022/07/13 19:31:05;;;;;;;2.88;1.80;;;28.70;35.90;;;25.34;44.38;95956.97;4951803;28;20408;-46
2022/07/13 19:33:31;;;;;;;6.20;2.08;;;28.60;35.90;;;25.19;46.06;95955.00;4936865;28;20030;-46
2022/07/13 19:35:57;;;;;;;2.08;1.83;;;28.50;36.10;;;25.00;46.63;95958.38;4948274;28;20026;-48
2022/07/13 19:38:23;;;;;;;6.07;1.48;;;28.40;36.40;;;24.91;46.41;95955.78;4949729;28;20113;-46
2022/07/13 19:40:51;;;;;;;3.53;1.55;;;28.30;36.70;;;24.85;45.22;95955.28;4970606;28;20026;-46
2022/07/13 19:43:17;;;;;;;2.47;1.60;;;28.20;36.70;;;24.67;45.63;95956.72;4962325;28;20029;-45
2022/07/13 19:45:44;;;;;;;5.65;1.40;;;28.10;36.70;;;24.53;44.68;95965.25;4938953;29;20042;-46
2022/07/13 19:48:10;;;;;;;1.90;1.50;;;28.00;36.60;;;24.51;46.67;95969.44;4937109;28;20034;-45
2022/07/13 19:50:39;;;;;;;3.35;1.65;;;27.90;36.90;;;24.37;46.86;95962.41;4938411;28;20033;-51
2022/07/13 19:53:06;;;;;;;3.80;1.90;;;27.80;37.20;;;24.31;47.77;95969.25;4935482;29;20385;-50
2022/07/13 19:55:38;;;;;;;2.30;1.40;;;27.60;37.50;;;24.14;47.54;95967.56;4942022;28;20018;-46
2022/07/13 19:58:03;;;;;;;2.45;1.70;;;27.50;37.70;;;23.92;48.07;95971.56;4948973;29;20042;-47
2022/07/13 20:00:29;;;;;;;1.77;1.40;;;27.40;37.80;;;23.77;48.53;95983.91;4948684;29;20026;-47
2022/07/13 20:02:57;;;;;;;6.28;1.50;;;27.30;38.00;;;23.63;48.45;95979.91;4933568;29;20030;-46
2022/07/13 20:05:23;;;;;;;4.60;2.00;;;27.20;38.20;;;23.56;48.63;95978.53;4963037;28;20489;-47
2022/07/13 20:07:54;;;;;;;1.98;1.70;;;27.00;38.40;;;23.49;48.73;95980.22;4935877;28;20045;-46
2022/07/13 20:10:20;;;;;;;3.50;1.60;;;26.90;38.70;;;23.36;49.60;95982.13;4954619;28;20038;-45
2022/07/13 20:12:47;;;;;;;3.33;1.60;;;26.80;38.80;;;23.26;50.01;95977.94;4945485;28;20486;-45
2022/07/13 20:15:20;;;;;;;2.95;1.70;;;26.70;39.20;;;23.15;50.02;95979.47;4935031;29;20039;-47
2022/07/13 20:17:46;;;;;;;3.60;1.80;;;26.60;39.60;;;23.06;51.13;95982.31;4955503;28;20498;-45
2022/07/13 20:20:13;;;;;;;7.00;1.52;;;26.50;39.60;;;23.00;51.29;95977.38;4940441;28;20035;-45
2022/07/13 20:22:42;;;;;;;2.45;1.80;;;26.40;39.90;;;22.92;50.81;95970.91;4947648;28;20485;-47
2022/07/13 20:25:10;;;;;;;4.72;1.65;;;26.30;40.10;;;22.88;50.69;95975.41;4938809;28;20118;-48
2022/07/13 20:27:37;;;;;;;3.55;1.58;;;26.20;40.20;;;22.85;50.51;95974.16;4959342;28;20022;-48
2022/07/13 20:30:05;;;;;;;5.47;1.50;;;26.20;40.30;;;22.80;50.81;95979.00;4942437;28;20030;-46
2022/07/13 20:32:39;;;;;;;2.53;1.50;;;26.10;40.50;;;22.72;50.78;95977.97;4943505;28;20392;-46
2022/07/13 20:35:11;;;;;;;5.47;1.58;;;26.00;40.70;;;22.66;51.50;95970.31;4942949;28;20401;-46
2022/07/13 20:37:39;;;;;;;3.75;1.83;;;26.00;40.70;;;22.58;51.29;95975.50;4934306;28;20038;-47
2022/07/13 20:40:08;;;;;;;4.75;2.08;;;25.90;40.80;;;22.48;51.89;95978.63;4934571;29;20050;-48
2022/07/13 20:42:34;;;;;;;3.63;1.92;;;25.80;41.10;;;22.42;51.98;95985.38;4943618;28;20023;-48
2022/07/13 20:45:20;;;;;;;2.92;2.17;;;25.80;41.10;;;22.35;51.46;95990.53;4944011;28;20367;-46
2022/07/13 20:47:46;;;;;;;4.70;1.30;;;25.70;41.10;;;22.16;51.63;95996.41;4950842;28;20022;-47
2022/07/13 20:50:15;;;;;;;1.70;1.60;;;25.60;41.00;;;22.02;50.22;95995.81;4960871;28;20072;-46
2022/07/13 20:52:41;;;;;;;2.33;1.45;;;25.60;41.00;;;21.95;50.59;96005.25;4939602;28;20035;-50
2022/07/13 20:55:09;;;;;;;1.80;1.60;;;25.40;40.80;;;21.93;51.88;96001.28;4948601;28;20022;-48
2022/07/13 20:57:41;;;;;;;2.58;1.65;;;25.40;41.20;;;21.83;51.91;96007.88;4955272;28;20026;-46
2022/07/13 21:00:11;;;;;;;4.45;1.58;;;25.30;41.30;;;21.67;53.04;96015.75;4942761;28;20084;-46
2022/07/13 21:02:42;;;;;;;2.72;1.50;;;25.20;41.40;;;21.60;53.21;96011.97;4959583;28;20068;-51
2022/07/13 21:05:08;;;;;;;3.22;1.63;;;25.10;41.60;;;21.47;52.67;96009.13;4944470;28;20035;-47
2022/07/13 21:07:37;;;;;;;4.60;1.75;;;25.00;41.70;;;21.39;53.24;96012.66;4938862;28;20022;-52
2022/07/13 21:10:04;;;;;;;4.22;1.40;;;24.90;41.90;;;21.34;53.94;96015.53;4954346;28;20073;-49
2022/07/13 21:12:32;;;;;;;2.75;2.08;;;24.80;42.00;;;21.22;55.73;96018.09;4933794;28;20462;-49
2022/07/13 21:14:58;;;;;;;3.60;1.33;;;24.80;42.40;;;21.09;55.32;96022.59;4935251;28;20109;-48
2022/07/13 21:17:24;;;;;;;4.72;1.60;;;24.70;42.60;;;21.05;55.52;96028.94;4967478;28;20049;-51
2022/07/13 21:19:50;;;;;;;2.95;1.30;;;24.60;43.00;;;21.01;55.70;96026.09;4967865;28;20037;-46
2022/07/13 21:22:23;;;;;;;2.08;1.40;;;24.50;43.20;;;20.94;55.61;96028.50;4945981;28;20030;-47
2022/07/13 21:24:52;;;;;;;3.47;1.58;;;24.40;43.40;;;20.83;56.39;96024.50;4960013;28;20761;-51
2022/07/13 21:27:18;;;;;;;3.22;1.63;;;24.30;43.70;;;20.74;56.22;96025.28;4960551;28;20027;-48
2022/07/13 21:29:44;;;;;;;5.28;2.08;;;24.20;43.70;;;20.73;56.35;96017.50;4957556;28;20503;-47
2022/07/13 21:32:10;;;;;;;4.03;1.80;;;24.20;43.90;;;20.72;55.15;96014.00;4962124;28;20029;-46
2022/07/13 21:34:35;;;;;;;4.57;1.60;;;24.20;44.00;;;20.77;55.80;96021.16;4956413;28;20363;-47
2022/07/13 21:37:01;;;;;;;5.72;1.90;;;24.20;44.10;;;20.81;55.97;96022.13;4923676;28;20110;-49
2022/07/13 21:39:27;;;;;;;2.28;1.88;;;24.20;44.20;;;20.83;55.06;96022.59;4953857;28;20031;-46
2022/07/13 21:41:56;;;;;;;4.90;1.90;;;24.20;44.20;;;20.85;54.24;96023.06;4958705;28;20488;-46
2022/07/13 21:44:22;;;;;;;6.65;1.85;;;24.20;44.10;;;20.88;54.84;96027.06;4955680;28;20052;-46
2022/07/13 21:46:53;;;;;;;3.80;1.90;;;24.20;44.10;;;20.88;54.13;96032.47;4980337;23;20050;-49
